sensor_id;sensor_type;location;lat;lon;timestamp;P1;durP1;ratioP1;P2;durP2;ratioP2
48423;SDS011;34232;42.502;26.014;2022-10-16T00:01:09;3.03;;;2.63;;
48423;SDS011;34232;42.502;26.014;2022-10-16T00:03:36;3.78;;;2.17;;
48423;SDS011;34232;42.502;26.014;2022-10-16T00:06:03;4.45;;;2.65;;
48423;SDS011;34232;42.502;26.014;2022-10-16T00:08:29;3.08;;;2.30;;
48423;SDS011;34232;42.502;26.014;2022-10-16T00:10:58;4.57;;;2.70;;
48423;SDS011;34232;42.502;26.014;2022-10-16T00:13:30;2.40;;;2.25;;
48423;SDS011;34232;42.502;26.014;2022-10-16T00:15:56;2.55;;;2.35;;
48423;SDS011;34232;42.502;26.014;2022-10-16T00:18:23;5.00;;;2.33;;
48423;SDS011;34232;42.502;26.014;2022-10-16T00:20:49;2.53;;;2.33;;
48423;SDS011;34232;42.502;26.014;2022-10-16T00:23:14;2.70;;;2.03;;
48423;SDS011;34232;42.502;26.014;2022-10-16T00:25:40;5.63;;;2.30;;
48423;SDS011;34232;42.502;26.014;2022-10-16T00:28:05;3.57;;;2.50;;
48423;SDS011;34232;42.502;26.014;2022-10-16T00:30:31;5.20;;;2.87;;
48423;SDS011;34232;42.502;26.014;2022-10-16T00:32:56;2.60;;;2.40;;
48423;SDS011;34232;42.502;26.014;2022-10-16T00:35:22;5.63;;;2.60;;
48423;SDS011;34232;42.502;26.014;2022-10-16T00:37:47;2.50;;;1.93;;
48423;SDS011;34232;42.502;26.014;2022-10-16T00:40:13;2.83;;;1.93;;
48423;SDS011;34232;42.502;26.014;2022-10-16T00:42:38;4.07;;;2.63;;
48423;SDS011;34232;42.502;26.014;2022-10-16T00:45:04;4.57;;;2.50;;
48423;SDS011;34232;42.502;26.014;2022-10-16T00:47:31;2.00;;;1.80;;
48423;SDS011;34232;42.502;26.014;2022-10-16T00:50:13;2.75;;;2.22;;
48423;SDS011;34232;42.502;26.014;2022-10-16T00:52:46;4.43;;;2.30;;
48423;SDS011;34232;42.502;26.014;2022-10-16T00:55:13;3.67;;;2.38;;
48423;SDS011;34232;42.502;26.014;2022-10-16T00:57:39;3.28;;;2.15;;
48423;SDS011;34232;42.502;26.014;2022-10-16T01:00:07;3.10;;;1.73;;
48423;SDS011;34232;42.502;26.014;2022-10-16T01:02:35;2.72;;;2.53;;
48423;SDS011;34232;42.502;26.014;2022-10-16T01:05:00;2.97;;;2.37;;
48423;SDS011;34232;42.502;26.014;2022-10-16T01:15:41;3.35;;;2.47;;
48423;SDS011;34232;42.502;26.014;2022-10-16T01:18:14;2.30;;;2.10;;
48423;SDS011;34232;42.502;26.014;2022-10-16T01:20:53;4.23;;;1.73;;
48423;SDS011;34232;42.502;26.014;2022-10-16T01:31:12;3.40;;;2.60;;
48423;SDS011;34232;42.502;26.014;2022-10-16T01:33:44;3.85;;;2.03;;
48423;SDS011;34232;42.502;26.014;2022-10-16T01:36:16;3.38;;;1.98;;
48423;SDS011;34232;42.502;26.014;2022-10-16T01:38:46;4.68;;;2.45;;
48423;SDS011;34232;42.502;26.014;2022-10-16T01:41:20;2.47;;;2.28;;
48423;SDS011;34232;42.502;26.014;2022-10-16T01:46:53;1.77;;;1.67;;
48423;SDS011;34232;42.502;26.014;2022-10-16T01:49:20;4.38;;;2.38;;
48423;SDS011;34232;42.502;26.014;2022-10-16T01:51:48;5.72;;;1.80;;
48423;SDS011;34232;42.502;26.014;2022-10-16T01:54:17;3.78;;;1.90;;
48423;SDS011;34232;42.502;26.014;2022-10-16T01:56:45;4.50;;;2.55;;
48423;SDS011;34232;42.502;26.014;2022-10-16T01:59:14;4.93;;;2.22;;
48423;SDS011;34232;42.502;26.014;2022-10-16T02:01:49;4.65;;;2.05;;
48423;SDS011;34232;42.502;26.014;2022-10-16T02:06:48;3.13;;;2.13;;
48423;SDS011;34232;42.502;26.014;2022-10-16T02:09:14;3.67;;;2.57;;
48423;SDS011;34232;42.502;26.014;2022-10-16T02:11:42;3.55;;;2.95;;
48423;SDS011;34232;42.502;26.014;2022-10-16T02:14:08;4.07;;;2.88;;
48423;SDS011;34232;42.502;26.014;2022-10-16T02:19:04;4.70;;;2.22;;
48423;SDS011;34232;42.502;26.014;2022-10-16T02:21:33;3.00;;;2.70;;
48423;SDS011;34232;42.502;26.014;2022-10-16T02:27:00;2.63;;;2.42;;
48423;SDS011;34232;42.502;26.014;2022-10-16T02:29:30;2.78;;;1.88;;
48423;SDS011;34232;42.502;26.014;2022-10-16T02:32:03;3.75;;;2.55;;
48423;SDS011;34232;42.502;26.014;2022-10-16T02:34:31;3.22;;;2.92;;
48423;SDS011;34232;42.502;26.014;2022-10-16T02:36:58;6.28;;;2.88;;
48423;SDS011;34232;42.502;26.014;2022-10-16T02:39:27;4.70;;;2.15;;
48423;SDS011;34232;42.502;26.014;2022-10-16T02:41:53;5.50;;;2.55;;
48423;SDS011;34232;42.502;26.014;2022-10-16T02:44:19;3.17;;;2.50;;
48423;SDS011;34232;42.502;26.014;2022-10-16T02:46:45;5.57;;;4.67;;
48423;SDS011;34232;42.502;26.014;2022-10-16T02:49:10;2.53;;;2.33;;
48423;SDS011;34232;42.502;26.014;2022-10-16T02:51:35;3.97;;;2.70;;
48423;SDS011;34232;42.502;26.014;2022-10-16T02:54:01;4.63;;;2.73;;
48423;SDS011;34232;42.502;26.014;2022-10-16T02:56:27;2.72;;;2.47;;
48423;SDS011;34232;42.502;26.014;2022-10-16T02:58:53;2.50;;;2.30;;
48423;SDS011;34232;42.502;26.014;2022-10-16T03:01:18;2.77;;;2.53;;
48423;SDS011;34232;42.502;26.014;2022-10-16T03:03:43;4.67;;;2.83;;
48423;SDS011;34232;42.502;26.014;2022-10-16T03:06:09;7.50;;;2.77;;
48423;SDS011;34232;42.502;26.014;2022-10-16T03:08:34;7.20;;;2.83;;
48423;SDS011;34232;42.502;26.014;2022-10-16T03:11:00;5.03;;;2.60;;
48423;SDS011;34232;42.502;26.014;2022-10-16T03:13:25;4.30;;;2.40;;
48423;SDS011;34232;42.502;26.014;2022-10-16T03:15:51;6.20;;;3.17;;
48423;SDS011;34232;42.502;26.014;2022-10-16T03:18:16;3.17;;;2.63;;
48423;SDS011;34232;42.502;26.014;2022-10-16T03:20:45;3.63;;;2.57;;
48423;SDS011;34232;42.502;26.014;2022-10-16T03:23:10;4.18;;;2.55;;
48423;SDS011;34232;42.502;26.014;2022-10-16T03:25:36;3.13;;;2.50;;
48423;SDS011;34232;42.502;26.014;2022-10-16T03:28:01;2.93;;;2.50;;
48423;SDS011;34232;42.502;26.014;2022-10-16T03:30:28;4.55;;;2.92;;
48423;SDS011;34232;42.502;26.014;2022-10-16T03:32:53;3.37;;;3.03;;
48423;SDS011;34232;42.502;26.014;2022-10-16T03:35:19;3.87;;;2.67;;
48423;SDS011;34232;42.502;26.014;2022-10-16T03:37:45;4.97;;;2.67;;
48423;SDS011;34232;42.502;26.014;2022-10-16T03:40:10;5.83;;;3.43;;
48423;SDS011;34232;42.502;26.014;2022-10-16T03:42:36;5.80;;;2.90;;
48423;SDS011;34232;42.502;26.014;2022-10-16T03:45:02;4.97;;;2.60;;
48423;SDS011;34232;42.502;26.014;2022-10-16T03:47:27;3.70;;;2.50;;
48423;SDS011;34232;42.502;26.014;2022-10-16T03:49:53;3.40;;;2.47;;
48423;SDS011;34232;42.502;26.014;2022-10-16T03:52:18;4.77;;;3.90;;
48423;SDS011;34232;42.502;26.014;2022-10-16T03:54:44;4.23;;;2.50;;
48423;SDS011;34232;42.502;26.014;2022-10-16T03:57:09;3.00;;;2.67;;
48423;SDS011;34232;42.502;26.014;2022-10-16T03:59:34;3.17;;;2.57;;
48423;SDS011;34232;42.502;26.014;2022-10-16T04:02:00;3.40;;;2.73;;
48423;SDS011;34232;42.502;26.014;2022-10-16T04:04:25;4.23;;;2.93;;
48423;SDS011;34232;42.502;26.014;2022-10-16T04:06:51;6.40;;;3.33;;
48423;SDS011;34232;42.502;26.014;2022-10-16T04:09:16;3.17;;;2.83;;
48423;SDS011;34232;42.502;26.014;2022-10-16T04:11:42;2.83;;;2.60;;
48423;SDS011;34232;42.502;26.014;2022-10-16T04:14:07;4.13;;;2.83;;
48423;SDS011;34232;42.502;26.014;2022-10-16T04:16:32;3.40;;;2.53;;
48423;SDS011;34232;42.502;26.014;2022-10-16T04:18:58;4.67;;;2.27;;
48423;SDS011;34232;42.502;26.014;2022-10-16T04:21:23;3.53;;;1.97;;
48423;SDS011;34232;42.502;26.014;2022-10-16T04:23:49;5.37;;;2.27;;
48423;SDS011;34232;42.502;26.014;2022-10-16T04:26:16;3.70;;;2.47;;
48423;SDS011;34232;42.502;26.014;2022-10-16T04:28:42;3.22;;;2.47;;
48423;SDS011;34232;42.502;26.014;2022-10-16T04:31:07;3.37;;;2.27;;
48423;SDS011;34232;42.502;26.014;2022-10-16T04:33:33;2.50;;;2.30;;
48423;SDS011;34232;42.502;26.014;2022-10-16T04:35:59;5.33;;;2.53;;
48423;SDS011;34232;42.502;26.014;2022-10-16T04:38:26;2.28;;;1.52;;
48423;SDS011;34232;42.502;26.014;2022-10-16T04:40:51;2.63;;;2.43;;
48423;SDS011;34232;42.502;26.014;2022-10-16T04:43:17;3.63;;;2.90;;
48423;SDS011;34232;42.502;26.014;2022-10-16T04:45:43;6.28;;;4.32;;
48423;SDS011;34232;42.502;26.014;2022-10-16T04:48:09;5.83;;;4.00;;
48423;SDS011;34232;42.502;26.014;2022-10-16T04:50:34;10.13;;;5.33;;
48423;SDS011;34232;42.502;26.014;2022-10-16T04:53:00;11.03;;;5.13;;
48423;SDS011;34232;42.502;26.014;2022-10-16T04:55:25;6.87;;;4.53;;
48423;SDS011;34232;42.502;26.014;2022-10-16T04:57:51;7.07;;;5.07;;
48423;SDS011;34232;42.502;26.014;2022-10-16T05:00:16;5.83;;;4.93;;
48423;SDS011;34232;42.502;26.014;2022-10-16T05:02:42;6.07;;;4.50;;
48423;SDS011;34232;42.502;26.014;2022-10-16T05:05:07;6.53;;;5.10;;
48423;SDS011;34232;42.502;26.014;2022-10-16T05:07:33;7.03;;;5.40;;
48423;SDS011;34232;42.502;26.014;2022-10-16T05:09:58;3.67;;;3.37;;
48423;SDS011;34232;42.502;26.014;2022-10-16T05:12:23;5.40;;;3.83;;
48423;SDS011;34232;42.502;26.014;2022-10-16T05:14:49;4.07;;;3.67;;
48423;SDS011;34232;42.502;26.014;2022-10-16T05:17:14;6.33;;;4.43;;
48423;SDS011;34232;42.502;26.014;2022-10-16T05:19:40;9.03;;;4.33;;
48423;SDS011;34232;42.502;26.014;2022-10-16T05:22:08;7.13;;;3.23;;
48423;SDS011;34232;42.502;26.014;2022-10-16T05:24:33;4.30;;;3.63;;
48423;SDS011;34232;42.502;26.014;2022-10-16T05:26:59;4.53;;;3.10;;
48423;SDS011;34232;42.502;26.014;2022-10-16T05:29:24;5.07;;;3.60;;
48423;SDS011;34232;42.502;26.014;2022-10-16T05:31:50;7.50;;;3.60;;
48423;SDS011;34232;42.502;26.014;2022-10-16T05:34:19;5.72;;;3.90;;
48423;SDS011;34232;42.502;26.014;2022-10-16T05:36:45;12.05;;;4.75;;
48423;SDS011;34232;42.502;26.014;2022-10-16T05:39:11;7.93;;;3.77;;
48423;SDS011;34232;42.502;26.014;2022-10-16T05:41:37;6.17;;;3.73;;
48423;SDS011;34232;42.502;26.014;2022-10-16T05:44:05;10.17;;;4.30;;
48423;SDS011;34232;42.502;26.014;2022-10-16T05:46:31;4.88;;;3.55;;
48423;SDS011;34232;42.502;26.014;2022-10-16T05:48:57;8.38;;;4.47;;
48423;SDS011;34232;42.502;26.014;2022-10-16T05:51:22;5.37;;;4.60;;
48423;SDS011;34232;42.502;26.014;2022-10-16T05:53:48;5.37;;;4.40;;
48423;SDS011;34232;42.502;26.014;2022-10-16T05:56:13;5.53;;;4.30;;
48423;SDS011;34232;42.502;26.014;2022-10-16T05:58:39;5.43;;;3.60;;
48423;SDS011;34232;42.502;26.014;2022-10-16T06:01:06;5.20;;;3.95;;
48423;SDS011;34232;42.502;26.014;2022-10-16T06:03:36;8.98;;;4.43;;
48423;SDS011;34232;42.502;26.014;2022-10-16T06:06:11;7.23;;;4.20;;
48423;SDS011;34232;42.502;26.014;2022-10-16T06:11:06;8.90;;;4.63;;
48423;SDS011;34232;42.502;26.014;2022-10-16T06:13:33;6.88;;;5.15;;
48423;SDS011;34232;42.502;26.014;2022-10-16T06:15:59;6.43;;;4.33;;
48423;SDS011;34232;42.502;26.014;2022-10-16T06:18:26;5.63;;;4.32;;
48423;SDS011;34232;42.502;26.014;2022-10-16T06:23:18;7.13;;;4.85;;
48423;SDS011;34232;42.502;26.014;2022-10-16T06:25:43;5.63;;;4.60;;
48423;SDS011;34232;42.502;26.014;2022-10-16T06:28:09;11.93;;;5.00;;
48423;SDS011;34232;42.502;26.014;2022-10-16T06:30:34;11.57;;;6.30;;
48423;SDS011;34232;42.502;26.014;2022-10-16T06:32:59;5.30;;;4.10;;
48423;SDS011;34232;42.502;26.014;2022-10-16T06:35:25;5.83;;;4.47;;
48423;SDS011;34232;42.502;26.014;2022-10-16T06:37:52;6.13;;;5.13;;
48423;SDS011;34232;42.502;26.014;2022-10-16T06:40:18;6.13;;;4.05;;
48423;SDS011;34232;42.502;26.014;2022-10-16T06:42:43;11.40;;;4.90;;
48423;SDS011;34232;42.502;26.014;2022-10-16T06:45:08;6.97;;;4.83;;
48423;SDS011;34232;42.502;26.014;2022-10-16T06:47:34;9.60;;;5.90;;
48423;SDS011;34232;42.502;26.014;2022-10-16T06:50:00;9.90;;;5.00;;
48423;SDS011;34232;42.502;26.014;2022-10-16T06:52:27;7.67;;;5.27;;
48423;SDS011;34232;42.502;26.014;2022-10-16T06:54:53;5.07;;;3.92;;
48423;SDS011;34232;42.502;26.014;2022-10-16T06:57:18;4.80;;;4.37;;
48423;SDS011;34232;42.502;26.014;2022-10-16T06:59:44;16.57;;;4.37;;
48423;SDS011;34232;42.502;26.014;2022-10-16T07:02:10;5.20;;;4.40;;
48423;SDS011;34232;42.502;26.014;2022-10-16T07:04:35;11.70;;;5.20;;
48423;SDS011;34232;42.502;26.014;2022-10-16T07:07:01;5.67;;;3.93;;
48423;SDS011;34232;42.502;26.014;2022-10-16T07:09:27;7.57;;;4.93;;
48423;SDS011;34232;42.502;26.014;2022-10-16T07:11:53;7.17;;;4.27;;
48423;SDS011;34232;42.502;26.014;2022-10-16T07:14:19;5.97;;;4.33;;
48423;SDS011;34232;42.502;26.014;2022-10-16T07:16:46;6.60;;;4.57;;
48423;SDS011;34232;42.502;26.014;2022-10-16T07:19:12;5.82;;;3.63;;
48423;SDS011;34232;42.502;26.014;2022-10-16T07:21:40;7.45;;;4.45;;
48423;SDS011;34232;42.502;26.014;2022-10-16T07:24:06;6.57;;;4.23;;
48423;SDS011;34232;42.502;26.014;2022-10-16T07:26:36;8.35;;;4.20;;
48423;SDS011;34232;42.502;26.014;2022-10-16T07:29:04;7.15;;;3.40;;
48423;SDS011;34232;42.502;26.014;2022-10-16T07:31:32;8.70;;;3.35;;
48423;SDS011;34232;42.502;26.014;2022-10-16T07:34:01;3.58;;;2.10;;
48423;SDS011;34232;42.502;26.014;2022-10-16T07:36:26;1.65;;;1.55;;
48423;SDS011;34232;42.502;26.014;2022-10-16T07:38:52;2.27;;;1.70;;
48423;SDS011;34232;42.502;26.014;2022-10-16T07:41:18;4.17;;;1.50;;
48423;SDS011;34232;42.502;26.014;2022-10-16T07:43:45;3.80;;;1.23;;
48423;SDS011;34232;42.502;26.014;2022-10-16T07:46:12;2.28;;;1.52;;
48423;SDS011;34232;42.502;26.014;2022-10-16T07:48:37;2.80;;;1.33;;
48423;SDS011;34232;42.502;26.014;2022-10-16T07:51:04;1.17;;;1.07;;
48423;SDS011;34232;42.502;26.014;2022-10-16T07:53:30;2.42;;;1.27;;
48423;SDS011;34232;42.502;26.014;2022-10-16T07:56:03;1.30;;;0.95;;
48423;SDS011;34232;42.502;26.014;2022-10-16T07:58:30;3.72;;;1.45;;
48423;SDS011;34232;42.502;26.014;2022-10-16T08:00:57;2.75;;;1.20;;
48423;SDS011;34232;42.502;26.014;2022-10-16T08:03:23;2.97;;;1.53;;
48423;SDS011;34232;42.502;26.014;2022-10-16T08:05:49;2.95;;;1.60;;
48423;SDS011;34232;42.502;26.014;2022-10-16T08:08:15;3.70;;;0.95;;
48423;SDS011;34232;42.502;26.014;2022-10-16T08:13:07;2.35;;;1.20;;
48423;SDS011;34232;42.502;26.014;2022-10-16T08:15:32;1.33;;;0.97;;
48423;SDS011;34232;42.502;26.014;2022-10-16T08:17:58;20.97;;;1.47;;
48423;SDS011;34232;42.502;26.014;2022-10-16T08:20:26;2.33;;;1.05;;
48423;SDS011;34232;42.502;26.014;2022-10-16T08:22:52;1.73;;;0.90;;
48423;SDS011;34232;42.502;26.014;2022-10-16T08:25:19;1.63;;;1.30;;
48423;SDS011;34232;42.502;26.014;2022-10-16T08:27:45;3.33;;;2.15;;
48423;SDS011;34232;42.502;26.014;2022-10-16T08:30:11;2.57;;;1.57;;
48423;SDS011;34232;42.502;26.014;2022-10-16T08:32:36;2.28;;;2.08;;
48423;SDS011;34232;42.502;26.014;2022-10-16T08:35:02;5.77;;;1.77;;
48423;SDS011;34232;42.502;26.014;2022-10-16T08:37:31;5.77;;;1.53;;
48423;SDS011;34232;42.502;26.014;2022-10-16T08:39:57;1.75;;;0.88;;
48423;SDS011;34232;42.502;26.014;2022-10-16T08:42:47;4.73;;;1.23;;
48423;SDS011;34232;42.502;26.014;2022-10-16T08:50:45;3.70;;;0.65;;
48423;SDS011;34232;42.502;26.014;2022-10-16T08:53:23;1.17;;;0.88;;
48423;SDS011;34232;42.502;26.014;2022-10-16T08:55:55;0.82;;;0.77;;
48423;SDS011;34232;42.502;26.014;2022-10-16T08:58:21;3.67;;;0.67;;
48423;SDS011;34232;42.502;26.014;2022-10-16T09:00:55;3.28;;;1.60;;
48423;SDS011;34232;42.502;26.014;2022-10-16T09:06:17;1.50;;;1.00;;
48423;SDS011;34232;42.502;26.014;2022-10-16T09:23:14;1.50;;;0.45;;
48423;SDS011;34232;42.502;26.014;2022-10-16T09:28:07;1.27;;;1.05;;
48423;SDS011;34232;42.502;26.014;2022-10-16T09:32:59;1.13;;;0.65;;
48423;SDS011;34232;42.502;26.014;2022-10-16T09:38:00;0.70;;;0.70;;
48423;SDS011;34232;42.502;26.014;2022-10-16T09:40:26;2.53;;;1.10;;
48423;SDS011;34232;42.502;26.014;2022-10-16T09:45:27;1.05;;;0.95;;
48423;SDS011;34232;42.502;26.014;2022-10-16T09:47:53;0.93;;;0.55;;
48423;SDS011;34232;42.502;26.014;2022-10-16T09:50:22;2.70;;;0.60;;
48423;SDS011;34232;42.502;26.014;2022-10-16T09:55:47;0.70;;;0.40;;
48423;SDS011;34232;42.502;26.014;2022-10-16T09:58:16;1.27;;;0.65;;
48423;SDS011;34232;42.502;26.014;2022-10-16T10:00:48;1.00;;;0.88;;
48423;SDS011;34232;42.502;26.014;2022-10-16T10:03:23;1.27;;;0.63;;
48423;SDS011;34232;42.502;26.014;2022-10-16T10:05:59;1.50;;;0.70;;
48423;SDS011;34232;42.502;26.014;2022-10-16T10:08:30;4.10;;;0.85;;
48423;SDS011;34232;42.502;26.014;2022-10-16T10:10:55;1.97;;;0.70;;
48423;SDS011;34232;42.502;26.014;2022-10-16T10:15:50;2.45;;;0.38;;
48423;SDS011;34232;42.502;26.014;2022-10-16T10:18:24;2.55;;;1.20;;
48423;SDS011;34232;42.502;26.014;2022-10-16T10:20:59;1.10;;;0.70;;
48423;SDS011;34232;42.502;26.014;2022-10-16T10:31:32;1.30;;;0.60;;
48423;SDS011;34232;42.502;26.014;2022-10-16T10:36:39;2.47;;;0.90;;
48423;SDS011;34232;42.502;26.014;2022-10-16T10:44:48;2.50;;;1.10;;
48423;SDS011;34232;42.502;26.014;2022-10-16T10:47:46;2.10;;;0.90;;
48423;SDS011;34232;42.502;26.014;2022-10-16T11:04:41;2.65;;;1.27;;
48423;SDS011;34232;42.502;26.014;2022-10-16T11:07:36;1.20;;;0.90;;
48423;SDS011;34232;42.502;26.014;2022-10-16T11:10:13;2.53;;;1.45;;
48423;SDS011;34232;42.502;26.014;2022-10-16T11:12:57;1.25;;;0.70;;
48423;SDS011;34232;42.502;26.014;2022-10-16T11:15:34;2.13;;;1.08;;
48423;SDS011;34232;42.502;26.014;2022-10-16T11:18:05;0.95;;;0.95;;
48423;SDS011;34232;42.502;26.014;2022-10-16T11:20:40;1.35;;;0.70;;
48423;SDS011;34232;42.502;26.014;2022-10-16T11:23:18;2.67;;;1.00;;
48423;SDS011;34232;42.502;26.014;2022-10-16T11:25:50;2.50;;;1.45;;
48423;SDS011;34232;42.502;26.014;2022-10-16T11:31:02;1.88;;;1.20;;
48423;SDS011;34232;42.502;26.014;2022-10-16T11:39:19;2.70;;;0.70;;
48423;SDS011;34232;42.502;26.014;2022-10-16T11:47:08;1.03;;;0.87;;
48423;SDS011;34232;42.502;26.014;2022-10-16T11:49:34;3.58;;;1.27;;
48423;SDS011;34232;42.502;26.014;2022-10-16T11:55:14;4.10;;;0.73;;
48423;SDS011;34232;42.502;26.014;2022-10-16T11:57:53;12.80;;;1.35;;
48423;SDS011;34232;42.502;26.014;2022-10-16T12:00:27;0.35;;;0.35;;
48423;SDS011;34232;42.502;26.014;2022-10-16T12:08:25;5.82;;;3.40;;
48423;SDS011;34232;42.502;26.014;2022-10-16T12:10:52;1.35;;;0.82;;
48423;SDS011;34232;42.502;26.014;2022-10-16T12:18:37;3.28;;;0.73;;
48423;SDS011;34232;42.502;26.014;2022-10-16T12:21:04;1.85;;;0.82;;
48423;SDS011;34232;42.502;26.014;2022-10-16T12:23:52;3.67;;;1.25;;
48423;SDS011;34232;42.502;26.014;2022-10-16T12:26:28;2.17;;;0.68;;
48423;SDS011;34232;42.502;26.014;2022-10-16T12:29:13;1.58;;;0.90;;
48423;SDS011;34232;42.502;26.014;2022-10-16T12:31:47;1.92;;;0.52;;
48423;SDS011;34232;42.502;26.014;2022-10-16T12:39:55;2.33;;;0.52;;
48423;SDS011;34232;42.502;26.014;2022-10-16T12:44:56;1.38;;;0.70;;
48423;SDS011;34232;42.502;26.014;2022-10-16T12:47:23;1.95;;;0.47;;
48423;SDS011;34232;42.502;26.014;2022-10-16T12:49:54;4.40;;;0.73;;
48423;SDS011;34232;42.502;26.014;2022-10-16T12:52:27;4.53;;;0.97;;
48423;SDS011;34232;42.502;26.014;2022-10-16T12:54:59;1.52;;;0.50;;
48423;SDS011;34232;42.502;26.014;2022-10-16T12:57:38;2.13;;;0.43;;
48423;SDS011;34232;42.502;26.014;2022-10-16T13:19:32;2.42;;;0.60;;
48423;SDS011;34232;42.502;26.014;2022-10-16T13:30:25;3.75;;;0.65;;
48423;SDS011;34232;42.502;26.014;2022-10-16T13:35:29;0.57;;;0.45;;
48423;SDS011;34232;42.502;26.014;2022-10-16T13:40:51;0.70;;;0.30;;
48423;SDS011;34232;42.502;26.014;2022-10-16T13:43:35;3.63;;;0.70;;
48423;SDS011;34232;42.502;26.014;2022-10-16T13:48:31;2.08;;;0.65;;
48423;SDS011;34232;42.502;26.014;2022-10-16T13:50:59;0.75;;;0.68;;
48423;SDS011;34232;42.502;26.014;2022-10-16T13:53:35;3.10;;;0.45;;
48423;SDS011;34232;42.502;26.014;2022-10-16T13:56:02;1.38;;;0.50;;
48423;SDS011;34232;42.502;26.014;2022-10-16T13:58:32;0.70;;;0.30;;
48423;SDS011;34232;42.502;26.014;2022-10-16T14:00:59;3.53;;;0.43;;
48423;SDS011;34232;42.502;26.014;2022-10-16T14:03:27;0.45;;;0.43;;
48423;SDS011;34232;42.502;26.014;2022-10-16T14:05:55;3.30;;;0.88;;
48423;SDS011;34232;42.502;26.014;2022-10-16T14:08:25;3.47;;;0.60;;
48423;SDS011;34232;42.502;26.014;2022-10-16T14:10:56;2.80;;;0.40;;
48423;SDS011;34232;42.502;26.014;2022-10-16T14:13:34;1.00;;;0.73;;
48423;SDS011;34232;42.502;26.014;2022-10-16T14:16:07;1.25;;;0.40;;
48423;SDS011;34232;42.502;26.014;2022-10-16T14:18:34;0.73;;;0.47;;
48423;SDS011;34232;42.502;26.014;2022-10-16T14:21:04;1.02;;;0.43;;
48423;SDS011;34232;42.502;26.014;2022-10-16T14:23:38;1.95;;;0.47;;
48423;SDS011;34232;42.502;26.014;2022-10-16T14:26:15;1.08;;;0.50;;
48423;SDS011;34232;42.502;26.014;2022-10-16T14:28:44;3.72;;;0.60;;
48423;SDS011;34232;42.502;26.014;2022-10-16T14:31:30;1.55;;;0.35;;
48423;SDS011;34232;42.502;26.014;2022-10-16T14:33:58;1.65;;;0.38;;
48423;SDS011;34232;42.502;26.014;2022-10-16T14:36:24;4.47;;;0.60;;
48423;SDS011;34232;42.502;26.014;2022-10-16T14:41:23;1.38;;;0.50;;
48423;SDS011;34232;42.502;26.014;2022-10-16T14:43:56;9.20;;;1.33;;
48423;SDS011;34232;42.502;26.014;2022-10-16T14:51:38;0.43;;;0.43;;
48423;SDS011;34232;42.502;26.014;2022-10-16T14:54:10;1.02;;;0.52;;
48423;SDS011;34232;42.502;26.014;2022-10-16T14:59:13;2.15;;;0.40;;
48423;SDS011;34232;42.502;26.014;2022-10-16T15:01:43;0.55;;;0.22;;
48423;SDS011;34232;42.502;26.014;2022-10-16T15:04:10;0.95;;;0.35;;
48423;SDS011;34232;42.502;26.014;2022-10-16T15:06:37;1.77;;;0.57;;
48423;SDS011;34232;42.502;26.014;2022-10-16T15:09:02;0.87;;;0.30;;
48423;SDS011;34232;42.502;26.014;2022-10-16T15:11:28;3.27;;;0.40;;
48423;SDS011;34232;42.502;26.014;2022-10-16T15:13:56;1.92;;;0.50;;
48423;SDS011;34232;42.502;26.014;2022-10-16T15:16:22;6.75;;;0.60;;
48423;SDS011;34232;42.502;26.014;2022-10-16T15:18:47;7.63;;;0.60;;
48423;SDS011;34232;42.502;26.014;2022-10-16T15:24:07;3.42;;;0.60;;
48423;SDS011;34232;42.502;26.014;2022-10-16T15:26:36;23.85;;;3.72;;
48423;SDS011;34232;42.502;26.014;2022-10-16T15:29:01;2.87;;;0.50;;
48423;SDS011;34232;42.502;26.014;2022-10-16T15:31:26;9.53;;;0.83;;
48423;SDS011;34232;42.502;26.014;2022-10-16T15:33:52;2.83;;;0.80;;
48423;SDS011;34232;42.502;26.014;2022-10-16T15:36:26;1.70;;;0.30;;
48423;SDS011;34232;42.502;26.014;2022-10-16T15:38:53;1.63;;;0.60;;
48423;SDS011;34232;42.502;26.014;2022-10-16T15:41:18;4.80;;;0.67;;
48423;SDS011;34232;42.502;26.014;2022-10-16T15:43:44;2.77;;;0.30;;
48423;SDS011;34232;42.502;26.014;2022-10-16T15:46:17;1.13;;;0.32;;
48423;SDS011;34232;42.502;26.014;2022-10-16T15:48:43;4.38;;;0.90;;
48423;SDS011;34232;42.502;26.014;2022-10-16T15:51:09;4.40;;;1.57;;
48423;SDS011;34232;42.502;26.014;2022-10-16T15:53:35;1.30;;;0.60;;
48423;SDS011;34232;42.502;26.014;2022-10-16T15:56:01;3.67;;;0.90;;
48423;SDS011;34232;42.502;26.014;2022-10-16T15:58:28;8.40;;;1.05;;
48423;SDS011;34232;42.502;26.014;2022-10-16T16:00:54;3.53;;;0.43;;
48423;SDS011;34232;42.502;26.014;2022-10-16T16:03:20;0.35;;;0.30;;
48423;SDS011;34232;42.502;26.014;2022-10-16T16:05:46;5.60;;;1.93;;
48423;SDS011;34232;42.502;26.014;2022-10-16T16:08:11;6.10;;;1.20;;
48423;SDS011;34232;42.502;26.014;2022-10-16T16:10:37;5.30;;;1.13;;
48423;SDS011;34232;42.502;26.014;2022-10-16T16:13:02;3.73;;;0.77;;
48423;SDS011;34232;42.502;26.014;2022-10-16T16:15:28;3.57;;;0.87;;
48423;SDS011;34232;42.502;26.014;2022-10-16T16:17:53;2.17;;;0.90;;
48423;SDS011;34232;42.502;26.014;2022-10-16T16:20:19;6.00;;;0.87;;
48423;SDS011;34232;42.502;26.014;2022-10-16T16:22:44;6.23;;;0.87;;
48423;SDS011;34232;42.502;26.014;2022-10-16T16:25:09;4.73;;;1.47;;
48423;SDS011;34232;42.502;26.014;2022-10-16T16:27:35;3.47;;;1.35;;
48423;SDS011;34232;42.502;26.014;2022-10-16T16:30:03;7.15;;;1.05;;
48423;SDS011;34232;42.502;26.014;2022-10-16T16:34:55;4.95;;;1.50;;
48423;SDS011;34232;42.502;26.014;2022-10-16T16:37:20;11.23;;;1.03;;
48423;SDS011;34232;42.502;26.014;2022-10-16T16:39:46;24.07;;;2.50;;
48423;SDS011;34232;42.502;26.014;2022-10-16T16:42:11;15.27;;;1.70;;
48423;SDS011;34232;42.502;26.014;2022-10-16T16:44:37;7.47;;;1.17;;
48423;SDS011;34232;42.502;26.014;2022-10-16T16:47:03;2.07;;;0.73;;
48423;SDS011;34232;42.502;26.014;2022-10-16T16:49:29;1.30;;;0.57;;
48423;SDS011;34232;42.502;26.014;2022-10-16T16:51:55;2.97;;;0.70;;
48423;SDS011;34232;42.502;26.014;2022-10-16T16:54:20;1.20;;;0.60;;
48423;SDS011;34232;42.502;26.014;2022-10-16T16:56:46;2.27;;;0.70;;
48423;SDS011;34232;42.502;26.014;2022-10-16T16:59:13;2.23;;;1.13;;
48423;SDS011;34232;42.502;26.014;2022-10-16T17:01:39;1.75;;;0.52;;
48423;SDS011;34232;42.502;26.014;2022-10-16T17:04:05;1.60;;;0.83;;
48423;SDS011;34232;42.502;26.014;2022-10-16T17:06:31;0.98;;;0.82;;
48423;SDS011;34232;42.502;26.014;2022-10-16T17:08:57;2.93;;;0.60;;
48423;SDS011;34232;42.502;26.014;2022-10-16T17:13:50;1.05;;;0.57;;
48423;SDS011;34232;42.502;26.014;2022-10-16T17:16:17;2.15;;;0.70;;
48423;SDS011;34232;42.502;26.014;2022-10-16T17:18:43;2.78;;;0.80;;
48423;SDS011;34232;42.502;26.014;2022-10-16T17:21:09;5.90;;;1.00;;
48423;SDS011;34232;42.502;26.014;2022-10-16T17:23:35;2.25;;;1.30;;
48423;SDS011;34232;42.502;26.014;2022-10-16T17:26:14;3.50;;;0.80;;
48423;SDS011;34232;42.502;26.014;2022-10-16T17:28:41;1.85;;;0.80;;
48423;SDS011;34232;42.502;26.014;2022-10-16T17:31:08;2.47;;;0.95;;
48423;SDS011;34232;42.502;26.014;2022-10-16T17:33:35;3.13;;;1.15;;
48423;SDS011;34232;42.502;26.014;2022-10-16T17:36:01;4.00;;;1.13;;
48423;SDS011;34232;42.502;26.014;2022-10-16T17:38:26;5.13;;;2.37;;
48423;SDS011;34232;42.502;26.014;2022-10-16T17:40:52;5.33;;;1.10;;
48423;SDS011;34232;42.502;26.014;2022-10-16T17:43:17;2.47;;;1.70;;
48423;SDS011;34232;42.502;26.014;2022-10-16T17:45:42;2.80;;;1.17;;
48423;SDS011;34232;42.502;26.014;2022-10-16T17:48:08;1.47;;;1.13;;
48423;SDS011;34232;42.502;26.014;2022-10-16T17:50:33;2.57;;;1.73;;